sensor_id;sensor_type;location;lat;lon;timestamp;P1;durP1;ratioP1;P2;durP2;ratioP2
36751;SDS011;22718;49.494;7.036;2023-03-14T19:32:09;2.95;;;0.40;;
36751;SDS011;22718;49.494;7.036;2023-03-14T19:34:36;1.20;;;0.30;;
36751;SDS011;22718;49.494;7.036;2023-03-14T19:48:32;1.50;;;0.40;;
36751;SDS011;22718;49.494;7.036;2023-03-14T19:56:36;3.80;;;0.75;;
36751;SDS011;22718;49.494;7.036;2023-03-14T19:59:03;2.28;;;0.50;;
36751;SDS011;22718;49.494;7.036;2023-03-14T20:01:35;2.63;;;0.65;;
36751;SDS011;22718;49.494;7.036;2023-03-14T20:04:03;4.15;;;0.93;;
36751;SDS011;22718;49.494;7.036;2023-03-14T20:09:17;3.78;;;0.35;;
36751;SDS011;22718;49.494;7.036;2023-03-14T20:14:24;1.23;;;0.30;;
36751;SDS011;22718;49.494;7.036;2023-03-14T20:16:50;3.05;;;0.65;;
36751;SDS011;22718;49.494;7.036;2023-03-14T20:19:18;3.78;;;0.45;;
36751;SDS011;22718;49.494;7.036;2023-03-14T20:21:46;2.95;;;0.30;;
36751;SDS011;22718;49.494;7.036;2023-03-14T20:24:15;2.42;;;0.40;;
36751;SDS011;22718;49.494;7.036;2023-03-14T20:26:41;3.42;;;0.50;;
36751;SDS011;22718;49.494;7.036;2023-03-14T20:29:14;1.02;;;0.30;;
36751;SDS011;22718;49.494;7.036;2023-03-14T20:31:40;1.15;;;0.20;;
36751;SDS011;22718;49.494;7.036;2023-03-14T20:34:09;0.40;;;0.20;;
36751;SDS011;22718;49.494;7.036;2023-03-14T20:36:38;0.75;;;0.20;;
36751;SDS011;22718;49.494;7.036;2023-03-14T20:39:04;1.30;;;0.20;;
36751;SDS011;22718;49.494;7.036;2023-03-14T20:41:30;2.42;;;0.70;;
36751;SDS011;22718;49.494;7.036;2023-03-14T20:43:56;0.93;;;0.20;;
36751;SDS011;22718;49.494;7.036;2023-03-14T20:46:26;1.20;;;0.10;;
36751;SDS011;22718;49.494;7.036;2023-03-14T20:48:54;1.85;;;0.20;;
36751;SDS011;22718;49.494;7.036;2023-03-14T20:51:20;0.60;;;0.17;;
36751;SDS011;22718;49.494;7.036;2023-03-14T20:53:46;1.67;;;0.32;;
36751;SDS011;22718;49.494;7.036;2023-03-14T20:56:12;4.20;;;0.63;;
36751;SDS011;22718;49.494;7.036;2023-03-14T20:58:37;2.40;;;0.35;;
36751;SDS011;22718;49.494;7.036;2023-03-14T21:01:03;2.53;;;0.40;;
36751;SDS011;22718;49.494;7.036;2023-03-14T21:03:32;2.58;;;0.50;;
36751;SDS011;22718;49.494;7.036;2023-03-14T21:05:57;2.22;;;0.30;;
36751;SDS011;22718;49.494;7.036;2023-03-14T21:08:24;5.72;;;0.55;;
36751;SDS011;22718;49.494;7.036;2023-03-14T21:10:51;2.80;;;0.40;;
36751;SDS011;22718;49.494;7.036;2023-03-14T21:13:18;3.45;;;0.60;;
36751;SDS011;22718;49.494;7.036;2023-03-14T21:15:44;2.05;;;0.57;;
36751;SDS011;22718;49.494;7.036;2023-03-14T21:18:10;4.03;;;1.00;;
36751;SDS011;22718;49.494;7.036;2023-03-14T21:20:36;2.42;;;0.65;;
36751;SDS011;22718;49.494;7.036;2023-03-14T21:23:06;4.07;;;0.63;;
36751;SDS011;22718;49.494;7.036;2023-03-14T21:25:32;2.25;;;0.60;;
36751;SDS011;22718;49.494;7.036;2023-03-14T21:27:59;2.08;;;0.30;;
36751;SDS011;22718;49.494;7.036;2023-03-14T21:30:30;3.38;;;0.68;;
36751;SDS011;22718;49.494;7.036;2023-03-14T21:32:56;2.25;;;0.77;;
36751;SDS011;22718;49.494;7.036;2023-03-14T21:35:23;2.50;;;0.50;;
36751;SDS011;22718;49.494;7.036;2023-03-14T21:37:49;2.25;;;0.40;;
36751;SDS011;22718;49.494;7.036;2023-03-14T21:40:15;1.42;;;0.25;;
36751;SDS011;22718;49.494;7.036;2023-03-14T21:42:41;3.78;;;0.57;;
36751;SDS011;22718;49.494;7.036;2023-03-14T21:45:06;2.35;;;0.30;;
36751;SDS011;22718;49.494;7.036;2023-03-14T21:47:32;2.28;;;0.60;;
36751;SDS011;22718;49.494;7.036;2023-03-14T21:49:58;4.88;;;0.40;;
36751;SDS011;22718;49.494;7.036;2023-03-14T21:52:25;3.42;;;0.30;;
36751;SDS011;22718;49.494;7.036;2023-03-14T21:54:51;4.25;;;0.40;;
36751;SDS011;22718;49.494;7.036;2023-03-14T21:57:17;1.58;;;0.30;;
36751;SDS011;22718;49.494;7.036;2023-03-14T21:59:44;1.48;;;0.30;;
36751;SDS011;22718;49.494;7.036;2023-03-14T22:02:11;3.22;;;0.50;;
36751;SDS011;22718;49.494;7.036;2023-03-14T22:04:42;2.50;;;0.60;;
36751;SDS011;22718;49.494;7.036;2023-03-14T22:07:12;2.55;;;0.50;;
36751;SDS011;22718;49.494;7.036;2023-03-14T22:09:40;4.10;;;0.60;;
36751;SDS011;22718;49.494;7.036;2023-03-14T22:12:08;2.78;;;0.50;;
36751;SDS011;22718;49.494;7.036;2023-03-14T22:14:35;3.60;;;0.43;;
36751;SDS011;22718;49.494;7.036;2023-03-14T22:17:01;3.17;;;0.63;;
36751;SDS011;22718;49.494;7.036;2023-03-14T22:19:28;3.42;;;0.70;;
36751;SDS011;22718;49.494;7.036;2023-03-14T22:21:55;5.32;;;0.90;;
36751;SDS011;22718;49.494;7.036;2023-03-14T22:24:21;6.88;;;1.33;;
36751;SDS011;22718;49.494;7.036;2023-03-14T22:29:20;4.60;;;1.35;;
36751;SDS011;22718;49.494;7.036;2023-03-14T22:31:46;7.63;;;1.48;;
36751;SDS011;22718;49.494;7.036;2023-03-14T22:34:12;5.05;;;1.70;;
36751;SDS011;22718;49.494;7.036;2023-03-14T22:36:38;4.55;;;1.05;;
36751;SDS011;22718;49.494;7.036;2023-03-14T22:39:03;5.75;;;1.40;;
36751;SDS011;22718;49.494;7.036;2023-03-14T22:41:30;5.35;;;0.90;;
36751;SDS011;22718;49.494;7.036;2023-03-14T22:43:57;6.65;;;1.52;;
36751;SDS011;22718;49.494;7.036;2023-03-14T22:46:23;9.10;;;1.95;;
36751;SDS011;22718;49.494;7.036;2023-03-14T22:48:49;5.65;;;2.17;;
36751;SDS011;22718;49.494;7.036;2023-03-14T22:51:14;8.80;;;1.88;;
36751;SDS011;22718;49.494;7.036;2023-03-14T22:53:40;5.13;;;1.17;;
36751;SDS011;22718;49.494;7.036;2023-03-14T22:56:06;10.48;;;1.98;;
36751;SDS011;22718;49.494;7.036;2023-03-14T22:58:33;6.10;;;1.42;;
36751;SDS011;22718;49.494;7.036;2023-03-14T23:00:59;8.00;;;1.27;;
36751;SDS011;22718;49.494;7.036;2023-03-14T23:03:25;11.27;;;1.45;;
36751;SDS011;22718;49.494;7.036;2023-03-14T23:05:52;6.53;;;1.85;;
36751;SDS011;22718;49.494;7.036;2023-03-14T23:08:18;11.95;;;1.27;;
36751;SDS011;22718;49.494;7.036;2023-03-14T23:10:43;8.35;;;1.90;;
36751;SDS011;22718;49.494;7.036;2023-03-14T23:13:09;6.13;;;2.03;;
36751;SDS011;22718;49.494;7.036;2023-03-14T23:15:38;6.47;;;1.90;;
36751;SDS011;22718;49.494;7.036;2023-03-14T23:18:05;6.15;;;1.95;;
36751;SDS011;22718;49.494;7.036;2023-03-14T23:20:31;8.35;;;2.22;;
36751;SDS011;22718;49.494;7.036;2023-03-14T23:22:57;7.47;;;1.95;;
36751;SDS011;22718;49.494;7.036;2023-03-14T23:25:25;9.25;;;1.80;;
36751;SDS011;22718;49.494;7.036;2023-03-14T23:27:54;8.48;;;1.67;;
36751;SDS011;22718;49.494;7.036;2023-03-14T23:30:20;9.95;;;2.00;;
36751;SDS011;22718;49.494;7.036;2023-03-14T23:32:46;12.40;;;2.75;;
36751;SDS011;22718;49.494;7.036;2023-03-14T23:35:12;9.63;;;1.77;;
36751;SDS011;22718;49.494;7.036;2023-03-14T23:37:38;6.20;;;1.67;;
36751;SDS011;22718;49.494;7.036;2023-03-14T23:40:04;7.47;;;1.80;;
36751;SDS011;22718;49.494;7.036;2023-03-14T23:42:32;7.63;;;1.75;;
36751;SDS011;22718;49.494;7.036;2023-03-14T23:45:01;7.85;;;1.73;;
36751;SDS011;22718;49.494;7.036;2023-03-14T23:47:27;9.38;;;2.22;;
36751;SDS011;22718;49.494;7.036;2023-03-14T23:49:53;9.20;;;2.75;;
36751;SDS011;22718;49.494;7.036;2023-03-14T23:52:19;10.82;;;2.00;;
36751;SDS011;22718;49.494;7.036;2023-03-14T23:54:45;9.00;;;2.38;;
36751;SDS011;22718;49.494;7.036;2023-03-14T23:57:10;14.77;;;2.03;;
36751;SDS011;22718;49.494;7.036;2023-03-14T23:59:36;8.00;;;2.15;;
